Monday, January 21, 2019, 5:15 PM EST
Back to Local

KMTP, Montauk Airport

Location: Montauk, NY, United States Lat: 41.067
Local Time: 5:15 PM EST (22:15 GMT) Lon: -71.917
Time Zone: US/Eastern Elev: 6 ft

Show me the last for .
Show Coded

Time T Td Feel RH Dir Speed Gust Alt SLP Vis Weather Sky Remarks
2019-01-21 16:54 12 1 -11 60 300° 22 36 29.97 29.97 0 Peak wind: 37 mph (33 kts) from 300° at 57 min
2019-01-21 15:54 11 1 -14 63 310° 26 41 29.94 29.94 0 Peak wind: 41 mph (36 kts) from 300° at 51 min
2019-01-21 14:54 11 1 -14 63 310° 23 40 29.92 29.92 0 Peak wind: 40 mph (35 kts) from 320° at 38 min
2019-01-21 13:54 8 0 -16 68 300° 20 33 29.90 29.90 0 Peak wind: 37 mph (33 kts) from 300° at 30 min
2019-01-21 12:54 7 -1 -17 69 300° 20 33 29.91 29.90 0 Peak wind: 40 mph (35 kts) from 310° at 13 min
6-hr Min Temp (1pm): 5.0°F
6-hr Max Temp (1pm): 7.0°F
2019-01-21 11:54 6 -2 -19 68 300° 23 35 29.91 29.90 0 Peak wind: 36 mph (32 kts) from 300° at 30 min
2019-01-21 10:54 6 -2 -19 68 300° 18 33 29.91 29.91 0 Peak wind: 34 mph (30 kts) from 320° at 57 min
2019-01-21 09:54 6 -3 -19 65 300° 22 35 29.91 29.90 0 Peak wind: 34 mph (30 kts) from 290° at 45 min
2019-01-21 08:54 5 -5 -20 62 290° 21 33 29.89 29.88 0 Peak wind: 40 mph (35 kts) from 300° at 34 min
2019-01-21 07:54 6 -4 -20 62 300° 23 37 29.87 29.87 0 Peak wind: 39 mph (34 kts) from 300° at 59 min
Pressure rising rapidly
2019-01-21 06:54 6 -3 -20 65 300° 23 38 29.82 29.82 0 Peak wind: 37 mph (33 kts) from 300° at 45 min
24-hr Precip Total (7am): 1.30"
6-hr Min Temp (7am): 5.0°F
6-hr Max Temp (7am): 10.9°F
2019-01-21 05:54 6 -2 -18 68 300° 18 32 29.80 29.79 0 Peak wind: 36 mph (32 kts) from 310° at 57 min
2019-01-21 04:54 7 -2 -18 65 310° 25 37 29.77 29.77 0 Peak wind: 41 mph (36 kts) from 310° at 19 min
2019-01-21 03:54 7 -1 -18 69 310° 23 35 29.75 29.75 0 Peak wind: 37 mph (33 kts) from 310° at 31 min
2019-01-21 02:54 8 -1 -18 65 310° 24 40 29.73 29.73 0 Peak wind: 43 mph (38 kts) from 340° at 23 min
2019-01-21 01:54 10 1 -15 66 310° 28 41 29.71 29.71 0 Peak wind: 41 mph (36 kts) from 300° at 45 min
2019-01-21 00:54 10 1 -14 66 310° 23 37 29.68 29.68 0 Peak wind: 39 mph (34 kts) from 320° at 34 min
6-hr Min Temp (1am): 10.0°F
6-hr Max Temp (1am): 28.0°F
2019-01-20 23:54 12 3 -11 66 300° 21 35 29.65 29.65 0 Peak wind: 37 mph (33 kts) from 310° at 30 min
24-hr Min Temp (12am): 12.0°F
24-hr Max Temp (12am): 50.0°F
2019-01-20 22:54 14 7 -8 73 310° 23 36 29.61 29.61 0 Peak wind: 40 mph (35 kts) from 310° at 26 min
2019-01-20 21:54 16 9 -5 73 310° 22 35 29.56 29.56 0 Peak wind: 35 mph (31 kts) from 320° at 00 min
2019-01-20 20:54 18 12 -3 77 310° 22 36 29.52 29.52 0 Peak wind: 39 mph (34 kts) from 310° at 23 min
2019-01-20 19:54 22 16 3 77 310° 21 32 29.47 29.47 0 Peak wind: 35 mph (31 kts) from 310° at 37 min
Pressure rising rapidly
2019-01-20 18:54 28 20 12 71 310° 20 33 29.42 29.42 0 Peak wind: 34 mph (30 kts) from 310° at 37 min
6-hr Precip Total (7pm): 0.07"
6-hr Min Temp (7pm): 28.0°F
6-hr Max Temp (7pm): 50.0°F
2019-01-20 17:54 31 24 16 75 320° 18 30 29.37 29.37 0 Peak wind: 29 mph (26 kts) from 320° at 50 min

Support USWX by starting your Amazon purchase here.